Time;durP1;ratioP1;P1;durP2;ratioP2;P2;SDS_P1;SDS_P2;PMS_P1;PMS_P2;Temp;Humidity;BMP_temperature;BMP_pressure;BME280_temperature;BME280_humidity;BME280_pressure;Samples;Min_cycle;Max_cycle;Signal;HPM_P1;HPM_P2
2022/06/08 00:01:54;;;;;;;2.67;1.80;;;17.60;82.60;;;;;;5017876;28;20026;-69
2022/06/08 00:04:23;;;;;;;3.70;1.73;;;17.60;82.10;;;;;;5018287;28;20103;-69
2022/06/08 00:06:52;;;;;;;1.55;1.45;;;17.60;82.30;;;;;;5014728;28;20125;-69
2022/06/08 00:09:18;;;;;;;2.42;1.95;;;17.60;82.50;;;;;;5014834;28;20075;-69
2022/06/08 00:11:45;;;;;;;1.55;1.35;;;17.50;83.00;;;;;;5010775;28;20037;-69
2022/06/08 00:14:11;;;;;;;1.73;1.60;;;17.50;82.70;;;;;;5013127;28;20026;-69
2022/06/08 00:16:37;;;;;;;2.13;1.40;;;17.50;82.40;;;;;;5013947;28;20798;-69
2022/06/08 00:19:03;;;;;;;1.75;1.35;;;17.50;81.90;;;;;;5015159;28;20037;-69
2022/06/08 00:21:29;;;;;;;2.63;1.55;;;17.40;82.10;;;;;;5015102;28;20029;-69
2022/06/08 00:23:55;;;;;;;2.10;1.90;;;17.40;82.10;;;;;;5012544;28;20033;-69
2022/06/08 00:26:22;;;;;;;2.97;1.70;;;17.40;81.20;;;;;;5012183;28;20034;-69
2022/06/08 00:28:48;;;;;;;2.08;1.40;;;17.40;81.70;;;;;;5008939;28;20572;-69
2022/06/08 00:31:14;;;;;;;1.80;1.70;;;17.50;82.00;;;;;;5011069;28;20044;-69
2022/06/08 00:33:44;;;;;;;5.68;1.70;;;17.40;82.80;;;;;;5011415;28;20044;-69
2022/06/08 00:36:10;;;;;;;1.63;1.52;;;17.40;82.60;;;;;;5018573;28;20025;-69
2022/06/08 00:38:36;;;;;;;1.70;1.60;;;17.40;81.70;;;;;;5013065;28;20048;-69
2022/06/08 00:41:21;;;;;;;1.77;1.67;;;17.40;81.60;;;;;;5012206;28;20076;-69
2022/06/08 00:43:47;;;;;;;5.53;1.80;;;17.40;82.50;;;;;;5010175;28;20108;-69
2022/06/08 00:46:13;;;;;;;3.53;1.60;;;17.40;83.20;;;;;;5013813;28;20029;-69
2022/06/08 00:48:45;;;;;;;1.85;1.70;;;17.40;84.10;;;;;;5008610;28;20064;-69
2022/06/08 00:51:11;;;;;;;2.67;1.90;;;17.50;84.30;;;;;;5014391;28;20099;-69
2022/06/08 00:53:43;;;;;;;2.60;1.85;;;17.40;83.50;;;;;;5015545;28;20033;-70
2022/06/08 00:56:15;;;;;;;1.70;1.60;;;17.40;83.30;;;;;;5016916;28;20033;-70
2022/06/08 00:58:41;;;;;;;1.70;1.60;;;17.40;83.40;;;;;;5019139;28;20209;-69
2022/06/08 01:01:07;;;;;;;4.78;1.48;;;17.30;83.40;;;;;;5017407;28;20026;-69
2022/06/08 01:03:32;;;;;;;1.92;1.80;;;17.20;83.20;;;;;;5012029;28;20033;-69
2022/06/08 01:06:00;;;;;;;2.28;1.85;;;17.20;83.70;;;;;;5008330;28;20034;-68
2022/06/08 01:08:31;;;;;;;1.63;1.40;;;17.10;83.60;;;;;;5010438;28;20040;-69
2022/06/08 01:11:09;;;;;;;2.20;1.70;;;17.00;84.00;;;;;;5012128;28;20063;-68
2022/06/08 01:13:38;;;;;;;2.08;1.88;;;16.90;84.20;;;;;;5013010;28;21279;-69
2022/06/08 01:16:11;;;;;;;1.95;1.75;;;16.90;84.60;;;;;;5008987;28;20116;-69
2022/06/08 01:18:38;;;;;;;2.40;2.20;;;16.80;84.50;;;;;;5013231;28;20021;-69
2022/06/08 01:21:22;;;;;;;2.42;2.15;;;16.70;84.50;;;;;;5014390;28;20029;-69
2022/06/08 01:24:03;;;;;;;2.35;2.15;;;16.60;85.10;;;;;;5012737;28;20031;-69
2022/06/08 01:26:52;;;;;;;1.92;1.83;;;16.50;86.10;;;;;;5022986;28;20128;-69
2022/06/08 01:29:42;;;;;;;1.98;1.75;;;16.50;86.50;;;;;;5016638;28;20044;-69
2022/06/08 01:32:32;;;;;;;3.00;1.83;;;16.40;86.80;;;;;;5015367;28;20041;-69
2022/06/08 01:35:21;;;;;;;2.28;2.08;;;16.40;87.10;;;;;;5014595;28;20043;-69
2022/06/08 01:38:10;;;;;;;3.75;2.10;;;16.30;87.50;;;;;;5013997;28;20123;-69
2022/06/08 01:40:55;;;;;;;2.85;2.40;;;16.20;87.80;;;;;;5008546;28;20034;-69
2022/06/08 01:43:27;;;;;;;1.98;1.80;;;16.20;88.10;;;;;;5006550;28;20040;-69
2022/06/08 01:46:12;;;;;;;1.90;1.80;;;16.10;88.60;;;;;;5009639;28;20157;-69
2022/06/08 01:48:56;;;;;;;2.55;2.20;;;16.00;89.20;;;;;;5005219;28;20134;-69
2022/06/08 01:51:32;;;;;;;3.00;2.08;;;16.00;89.60;;;;;;5015357;28;20035;-69
2022/06/08 01:54:21;;;;;;;2.60;1.85;;;15.90;89.80;;;;;;5016072;28;20701;-69
2022/06/08 01:57:37;;;;;;;3.65;2.30;;;15.80;90.10;;;;;;5017760;28;20112;-69
2022/06/08 02:00:03;;;;;;;3.17;2.45;;;15.70;90.40;;;;;;5004085;28;20035;-69
2022/06/08 02:02:32;;;;;;;3.53;2.40;;;15.70;90.90;;;;;;5016429;28;20461;-69
2022/06/08 02:05:12;;;;;;;3.08;2.78;;;15.60;91.20;;;;;;5013600;28;20102;-69
2022/06/08 02:07:44;;;;;;;2.65;2.45;;;15.60;91.50;;;;;;5015414;28;20030;-69
2022/06/08 02:10:35;;;;;;;3.03;2.72;;;15.60;91.70;;;;;;5019067;28;20040;-69
2022/06/08 02:13:24;;;;;;;2.40;2.30;;;15.60;91.90;;;;;;5015696;28;20067;-68
2022/06/08 02:15:56;;;;;;;3.10;2.40;;;15.60;92.00;;;;;;5024587;28;20034;-69
2022/06/08 02:18:28;;;;;;;2.40;2.20;;;15.60;92.10;;;;;;5010030;28;20034;-69
2022/06/08 02:20:57;;;;;;;2.78;2.22;;;15.60;92.10;;;;;;5012717;28;20083;-69
2022/06/08 02:23:37;;;;;;;3.45;2.40;;;15.60;92.20;;;;;;5014529;28;20021;-69
2022/06/08 02:26:12;;;;;;;4.55;2.30;;;15.60;92.20;;;;;;5014403;28;20488;-69
2022/06/08 02:28:44;;;;;;;2.38;2.17;;;15.60;92.10;;;;;;5016666;28;20072;-69
2022/06/08 02:31:22;;;;;;;2.95;2.42;;;15.60;91.90;;;;;;5014089;28;20809;-69
2022/06/08 02:37:20;;;;;;;3.10;2.40;;;15.50;91.80;;;;;;5038288;28;20179;-68
2022/06/08 02:39:51;;;;;;;4.28;2.40;;;15.50;91.90;;;;;;5011183;28;20124;-69
2022/06/08 02:42:37;;;;;;;3.10;2.35;;;15.50;92.10;;;;;;5021059;28;20052;-69
2022/06/08 02:45:16;;;;;;;2.47;2.28;;;15.50;92.10;;;;;;5017757;28;20060;-69
2022/06/08 02:47:47;;;;;;;2.40;2.20;;;15.40;92.10;;;;;;5013217;28;20037;-69
2022/06/08 02:50:18;;;;;;;2.85;2.45;;;15.40;92.40;;;;;;5012580;28;20033;-69
2022/06/08 02:52:48;;;;;;;3.72;2.35;;;15.40;92.60;;;;;;5019982;28;20029;-69
2022/06/08 02:55:28;;;;;;;2.50;2.30;;;15.50;92.50;;;;;;5024784;28;20113;-69
2022/06/08 02:58:21;;;;;;;2.38;2.20;;;15.50;92.50;;;;;;5013110;28;20088;-69
2022/06/08 03:01:03;;;;;;;5.35;2.60;;;15.50;92.40;;;;;;5029989;28;20041;-69
2022/06/08 03:03:47;;;;;;;3.97;2.30;;;15.70;92.50;;;;;;5008477;28;20805;-69
2022/06/08 03:06:23;;;;;;;3.33;2.60;;;15.70;92.40;;;;;;5015406;28;20068;-69
2022/06/08 03:08:57;;;;;;;12.45;2.83;;;15.80;92.20;;;;;;5014616;28;20029;-69
2022/06/08 03:11:25;;;;;;;2.65;2.38;;;15.90;92.20;;;;;;5006914;28;20030;-69
2022/06/08 03:13:56;;;;;;;3.40;2.92;;;15.90;92.00;;;;;;5015048;28;20049;-69
2022/06/08 03:16:29;;;;;;;2.70;2.50;;;16.00;91.90;;;;;;5020029;28;20029;-69
2022/06/08 03:18:58;;;;;;;4.72;2.90;;;16.10;91.80;;;;;;5015567;28;20084;-69
2022/06/08 03:21:25;;;;;;;3.05;2.50;;;16.10;91.60;;;;;;5019079;28;20386;-69
2022/06/08 03:23:54;;;;;;;4.55;2.70;;;16.10;91.30;;;;;;5014787;28;20035;-69
2022/06/08 03:26:23;;;;;;;2.45;2.25;;;16.20;91.00;;;;;;5015249;28;20077;-69
2022/06/08 03:28:49;;;;;;;2.45;2.25;;;16.30;90.90;;;;;;5021473;28;20056;-69
2022/06/08 03:31:16;;;;;;;3.42;2.63;;;16.40;90.80;;;;;;5016641;28;20030;-69
2022/06/08 03:33:42;;;;;;;7.05;2.65;;;16.60;90.80;;;;;;5010889;28;20030;-69
2022/06/08 03:36:11;;;;;;;5.45;2.45;;;16.70;90.60;;;;;;5008407;28;20037;-69
2022/06/08 03:38:38;;;;;;;2.17;1.98;;;16.70;90.20;;;;;;5007179;28;20120;-69
2022/06/08 03:41:04;;;;;;;2.60;2.38;;;16.70;89.70;;;;;;5013595;28;20457;-69
2022/06/08 03:43:29;;;;;;;3.60;2.17;;;16.80;89.50;;;;;;5015403;28;20080;-68
2022/06/08 03:46:02;;;;;;;2.55;2.35;;;16.80;89.00;;;;;;5006120;28;20022;-69
2022/06/08 03:48:28;;;;;;;2.88;2.35;;;16.80;88.40;;;;;;5015500;28;20111;-69
2022/06/08 03:50:57;;;;;;;2.88;2.65;;;16.80;88.70;;;;;;5015027;28;20519;-69
2022/06/08 03:53:34;;;;;;;2.75;2.55;;;16.70;88.90;;;;;;5017368;28;20613;-69
2022/06/08 03:56:02;;;;;;;2.47;2.28;;;16.60;88.90;;;;;;5017052;28;20465;-69
2022/06/08 03:58:27;;;;;;;4.32;2.33;;;16.60;89.10;;;;;;5014167;28;20033;-69
2022/06/08 04:00:55;;;;;;;3.03;2.20;;;16.50;89.10;;;;;;5009655;28;20030;-69
2022/06/08 04:03:21;;;;;;;3.60;2.25;;;16.50;89.50;;;;;;5007889;28;20072;-69
2022/06/08 04:05:47;;;;;;;2.78;2.38;;;16.50;89.70;;;;;;5010063;28;20037;-69
2022/06/08 04:08:18;;;;;;;2.22;2.03;;;16.50;90.00;;;;;;5006512;28;20033;-69
2022/06/08 04:10:51;;;;;;;3.08;2.70;;;16.60;90.00;;;;;;5012956;28;20033;-68
2022/06/08 04:13:19;;;;;;;2.33;2.13;;;16.70;89.20;;;;;;5009207;28;20739;-69
2022/06/08 04:15:47;;;;;;;2.30;2.08;;;16.80;88.20;;;;;;5011203;28;20044;-69
2022/06/08 04:18:20;;;;;;;2.72;2.03;;;17.00;88.30;;;;;;5002181;28;20088;-69
2022/06/08 04:20:52;;;;;;;3.05;2.40;;;17.10;88.40;;;;;;5007751;28;20025;-69
2022/06/08 04:23:21;;;;;;;2.42;2.22;;;17.30;88.30;;;;;;5010348;28;20030;-68
2022/06/08 04:25:48;;;;;;;2.70;2.25;;;17.50;87.50;;;;;;5007009;28;20052;-69
2022/06/08 04:28:15;;;;;;;5.90;2.22;;;17.60;86.00;;;;;;5009646;28;20026;-69
2022/06/08 04:30:43;;;;;;;2.72;2.22;;;17.70;85.40;;;;;;5010853;28;20035;-69
2022/06/08 04:33:10;;;;;;;2.35;2.13;;;17.80;85.10;;;;;;5010251;28;20069;-69
2022/06/08 04:35:36;;;;;;;3.88;2.50;;;17.90;84.00;;;;;;5012767;28;20022;-69
2022/06/08 04:38:03;;;;;;;2.78;2.15;;;17.90;83.20;;;;;;5014250;28;20515;-69
2022/06/08 04:40:30;;;;;;;2.85;2.45;;;18.00;82.80;;;;;;5006662;28;20025;-69
2022/06/08 04:42:56;;;;;;;5.38;2.20;;;18.10;82.80;;;;;;5008010;28;20030;-69
2022/06/08 04:45:24;;;;;;;3.38;2.22;;;18.20;82.60;;;;;;5013072;28;20049;-69
2022/06/08 04:47:51;;;;;;;2.20;2.00;;;18.30;82.50;;;;;;5010314;28;20021;-69
2022/06/08 04:50:18;;;;;;;2.60;1.85;;;18.30;82.30;;;;;;5009614;28;20168;-70
2022/06/08 04:52:44;;;;;;;4.03;2.75;;;18.40;82.50;;;;;;5009805;28;20029;-69
2022/06/08 04:55:14;;;;;;;4.25;2.33;;;18.60;82.00;;;;;;5007993;28;20061;-69
2022/06/08 04:57:41;;;;;;;2.80;2.10;;;18.70;81.50;;;;;;5014740;28;20120;-69
2022/06/08 05:00:11;;;;;;;2.78;2.40;;;18.90;81.40;;;;;;5012967;28;20129;-69
2022/06/08 05:02:43;;;;;;;2.95;2.08;;;19.00;80.70;;;;;;5010139;28;20708;-69
2022/06/08 05:05:24;;;;;;;4.28;2.30;;;19.20;79.60;;;;;;5008682;28;20022;-69
2022/06/08 05:07:51;;;;;;;2.08;1.98;;;19.40;78.40;;;;;;5008067;28;20689;-69
2022/06/08 05:10:19;;;;;;;3.60;2.42;;;19.60;78.40;;;;;;5011228;28;20080;-68
2022/06/08 05:12:45;;;;;;;4.05;2.28;;;19.70;77.90;;;;;;5009267;28;20452;-69
2022/06/08 05:15:15;;;;;;;2.20;2.00;;;19.80;77.80;;;;;;5012499;28;20550;-69
2022/06/08 05:17:41;;;;;;;2.40;2.20;;;19.90;77.40;;;;;;5015610;28;20032;-70
2022/06/08 05:20:09;;;;;;;2.63;2.25;;;19.90;77.60;;;;;;5005287;28;20115;-69
2022/06/08 05:22:37;;;;;;;3.78;2.40;;;20.00;77.60;;;;;;5008859;28;20402;-69
2022/06/08 05:25:06;;;;;;;2.35;2.00;;;20.10;76.00;;;;;;5005203;28;20029;-69
2022/06/08 05:27:33;;;;;;;4.68;2.05;;;20.20;75.70;;;;;;5009871;28;20033;-69
2022/06/08 05:30:00;;;;;;;2.83;2.22;;;20.30;75.30;;;;;;5005205;28;20095;-69
2022/06/08 05:32:28;;;;;;;3.65;2.10;;;20.50;74.50;;;;;;5008808;28;20034;-69
2022/06/08 05:34:54;;;;;;;4.10;1.75;;;20.60;73.90;;;;;;5008839;28;20076;-70
2022/06/08 05:37:20;;;;;;;2.25;1.92;;;20.80;73.90;;;;;;5017516;28;20453;-69
2022/06/08 05:39:47;;;;;;;2.92;2.08;;;21.00;73.60;;;;;;5010882;28;20570;-69
2022/06/08 05:42:15;;;;;;;1.92;1.83;;;21.10;72.90;;;;;;5009517;28;20080;-69
2022/06/08 05:44:42;;;;;;;2.38;2.03;;;21.30;72.30;;;;;;5009663;28;20131;-69
2022/06/08 05:47:08;;;;;;;3.30;2.22;;;21.30;72.40;;;;;;5022371;28;20125;-69
2022/06/08 05:49:35;;;;;;;2.05;1.83;;;21.30;71.70;;;;;;4995944;28;20030;-69
2022/06/08 05:52:06;;;;;;;2.80;2.15;;;21.10;72.20;;;;;;5011512;28;20045;-69
2022/06/08 05:54:33;;;;;;;2.25;1.92;;;20.80;73.60;;;;;;5011362;28;20777;-69
2022/06/08 05:57:01;;;;;;;2.75;1.95;;;20.60;73.80;;;;;;5011669;28;20029;-69
2022/06/08 05:59:31;;;;;;;4.80;2.58;;;20.40;75.40;;;;;;5008697;28;20406;-69
2022/06/08 06:01:57;;;;;;;2.35;2.15;;;20.20;74.40;;;;;;5011921;28;20022;-70
2022/06/08 06:04:23;;;;;;;2.85;1.90;;;20.20;74.90;;;;;;5010803;28;20042;-69
2022/06/08 06:06:50;;;;;;;2.15;1.85;;;20.20;76.20;;;;;;5013033;28;20033;-70
2022/06/08 06:09:20;;;;;;;4.50;2.40;;;20.30;76.50;;;;;;5009174;28;20061;-69
2022/06/08 06:11:47;;;;;;;5.10;2.47;;;20.50;72.00;;;;;;5011211;28;20175;-70
2022/06/08 06:14:13;;;;;;;4.82;2.50;;;20.60;71.90;;;;;;5014836;28;20104;-69
2022/06/08 06:16:45;;;;;;;5.25;2.30;;;20.70;71.80;;;;;;5010622;28;20029;-69
2022/06/08 06:19:13;;;;;;;2.90;2.60;;;20.70;71.20;;;;;;5002425;28;20041;-69
2022/06/08 06:22:01;;;;;;;4.57;2.38;;;20.70;71.10;;;;;;5001164;28;20437;-69
2022/06/08 06:25:00;;;;;;;2.08;1.70;;;20.60;71.40;;;;;;5014874;28;20033;-69
2022/06/08 06:27:49;;;;;;;2.95;2.20;;;20.70;71.60;;;;;;5011003;28;20116;-69
2022/06/08 06:30:24;;;;;;;3.65;1.98;;;20.80;70.70;;;;;;5012898;28;20127;-69
2022/06/08 06:32:56;;;;;;;2.05;1.55;;;21.10;70.00;;;;;;5012737;28;20053;-70
2022/06/08 06:35:29;;;;;;;2.30;1.60;;;21.50;69.40;;;;;;5005685;28;20117;-68
2022/06/08 06:37:59;;;;;;;1.75;1.65;;;22.00;67.30;;;;;;5014484;28;20560;-69
2022/06/08 06:40:28;;;;;;;3.60;2.05;;;22.40;66.60;;;;;;5012890;28;20213;-69
2022/06/08 06:42:54;;;;;;;2.03;1.50;;;22.80;65.60;;;;;;5012598;28;20113;-69
2022/06/08 06:45:49;;;;;;;3.90;1.95;;;23.00;64.50;;;;;;5021718;28;20034;-69
2022/06/08 06:48:27;;;;;;;2.22;1.73;;;22.90;64.60;;;;;;5014055;28;20037;-66
2022/06/08 06:50:58;;;;;;;2.00;1.70;;;22.80;65.00;;;;;;5017668;28;20033;-69
2022/06/08 06:53:24;;;;;;;3.13;1.70;;;23.10;64.70;;;;;;5014275;28;20034;-68
2022/06/08 06:55:55;;;;;;;3.92;2.72;;;23.20;62.50;;;;;;5017615;28;20025;-68
2022/06/08 06:58:31;;;;;;;2.72;1.90;;;23.30;62.80;;;;;;5015159;28;20397;-68
2022/06/08 07:00:57;;;;;;;3.88;1.85;;;23.60;61.80;;;;;;5016476;28;20030;-68
2022/06/08 07:03:23;;;;;;;3.38;1.70;;;23.80;61.30;;;;;;5012816;28;20025;-68
2022/06/08 07:05:50;;;;;;;2.95;1.70;;;24.00;59.90;;;;;;5012174;28;20024;-68
2022/06/08 07:08:16;;;;;;;1.88;1.35;;;24.20;59.20;;;;;;5010171;28;20029;-70
2022/06/08 07:10:44;;;;;;;3.95;1.75;;;24.40;59.10;;;;;;5011439;28;20037;-69
2022/06/08 07:13:10;;;;;;;1.80;1.27;;;24.40;58.40;;;;;;5010172;28;20038;-70
2022/06/08 07:15:36;;;;;;;2.75;1.30;;;24.50;59.00;;;;;;5008566;28;20481;-72
2022/06/08 07:18:02;;;;;;;4.78;1.48;;;24.80;58.50;;;;;;5013999;28;20025;-72
2022/06/08 07:20:30;;;;;;;2.53;1.25;;;24.90;57.20;;;;;;5011634;28;20064;-71
2022/06/08 07:22:57;;;;;;;1.88;1.50;;;25.00;57.30;;;;;;5011311;28;20026;-72
2022/06/08 07:25:22;;;;;;;4.18;1.50;;;25.10;56.40;;;;;;5015185;28;20052;-72
2022/06/08 07:27:48;;;;;;;3.72;1.60;;;25.10;56.10;;;;;;5010302;28;20025;-72
2022/06/08 07:30:14;;;;;;;2.92;1.83;;;25.00;56.80;;;;;;5013999;28;20099;-72
2022/06/08 07:32:40;;;;;;;2.97;1.50;;;25.10;56.70;;;;;;5010975;28;20137;-72
2022/06/08 07:35:07;;;;;;;2.42;1.42;;;25.20;56.60;;;;;;5008284;28;20037;-72
2022/06/08 07:37:33;;;;;;;4.63;1.30;;;25.30;56.70;;;;;;5010936;28;20104;-68
2022/06/08 07:39:59;;;;;;;4.93;1.52;;;25.40;56.70;;;;;;5016238;28;20038;-72
2022/06/08 07:42:25;;;;;;;2.50;1.40;;;25.50;56.20;;;;;;5013241;28;20103;-72
2022/06/08 07:44:51;;;;;;;2.45;1.40;;;25.30;55.50;;;;;;5015357;28;20037;-73
2022/06/08 07:47:16;;;;;;;2.88;1.48;;;24.80;56.60;;;;;;5014413;28;20021;-72
2022/06/08 07:49:49;;;;;;;3.80;1.40;;;24.80;57.40;;;;;;5011889;28;20599;-74
2022/06/08 07:52:24;;;;;;;4.65;1.40;;;24.90;56.80;;;;;;5012187;28;20026;-73
2022/06/08 07:54:50;;;;;;;2.37;1.40;;;25.00;55.90;;;;;;5013698;28;20656;-74
2022/06/08 07:57:23;;;;;;;2.08;1.30;;;24.80;57.90;;;;;;5007822;28;20127;-74
2022/06/08 07:59:49;;;;;;;1.73;1.20;;;24.70;58.20;;;;;;5012519;28;20057;-74
2022/06/08 08:02:16;;;;;;;3.85;1.25;;;24.40;58.20;;;;;;5010899;28;20034;-74
2022/06/08 08:04:43;;;;;;;2.45;1.70;;;24.20;59.10;;;;;;5013832;28;20112;-74
2022/06/08 08:07:10;;;;;;;2.05;1.38;;;24.10;58.80;;;;;;5015652;28;20040;-74
2022/06/08 08:09:37;;;;;;;2.25;1.23;;;24.00;59.10;;;;;;5015132;28;20105;-74
2022/06/08 08:12:03;;;;;;;3.53;1.60;;;23.90;58.90;;;;;;5014209;28;20110;-73
2022/06/08 08:14:32;;;;;;;1.92;1.20;;;23.90;59.80;;;;;;5013893;28;20149;-74
2022/06/08 08:16:58;;;;;;;3.50;1.70;;;24.00;59.30;;;;;;5006442;28;20036;-74
2022/06/08 08:19:25;;;;;;;1.90;1.20;;;24.30;59.20;;;;;;5010449;28;20041;-74
2022/06/08 08:21:52;;;;;;;2.67;1.23;;;24.50;57.90;;;;;;5008133;28;20091;-74
2022/06/08 08:24:18;;;;;;;2.22;1.10;;;24.90;57.10;;;;;;5012783;28;20026;-73
2022/06/08 08:26:46;;;;;;;2.53;1.50;;;25.40;55.80;;;;;;5005874;28;20395;-72
2022/06/08 08:29:13;;;;;;;4.55;1.67;;;25.80;55.60;;;;;;5012361;28;20042;-72
2022/06/08 08:31:40;;;;;;;3.83;1.30;;;26.00;55.00;;;;;;5012038;28;20036;-73
2022/06/08 08:34:06;;;;;;;2.58;1.20;;;26.20;54.30;;;;;;5012021;28;20061;-72
2022/06/08 08:36:32;;;;;;;1.90;1.10;;;26.40;53.70;;;;;;5008707;28;20041;-70
2022/06/08 08:38:58;;;;;;;1.30;1.00;;;26.60;53.50;;;;;;5001945;28;20114;-69
2022/06/08 08:45:03;;;;;;;1.30;1.20;;;27.40;51.90;;;;;;5012305;28;20033;-72
2022/06/08 08:47:35;;;;;;;2.95;1.20;;;28.00;51.70;;;;;;5006471;28;20029;-71
2022/06/08 08:50:20;;;;;;;1.67;0.75;;;28.40;50.10;;;;;;5008185;28;20042;-71
2022/06/08 08:53:18;;;;;;;1.65;0.80;;;28.60;48.80;;;;;;5011052;28;20041;-71
2022/06/08 08:55:56;;;;;;;2.33;1.10;;;28.30;49.40;;;;;;5016269;28;20052;-62
2022/06/08 08:58:33;;;;;;;3.03;1.88;;;27.50;50.30;;;;;;5011814;28;20040;-62
2022/06/08 09:01:03;;;;;;;2.45;1.83;;;26.70;50.90;;;;;;5007417;28;20064;-63
2022/06/08 09:03:39;;;;;;;0.90;0.70;;;26.20;51.90;;;;;;5008316;28;20026;-63
2022/06/08 09:06:20;;;;;;;1.38;0.93;;;26.10;52.10;;;;;;5008567;28;20034;-63
2022/06/08 09:08:52;;;;;;;1.23;1.00;;;26.10;52.40;;;;;;5013641;28;20028;-63
2022/06/08 09:11:31;;;;;;;2.00;1.00;;;25.70;52.30;;;;;;5009782;28;20029;-64
2022/06/08 09:14:00;;;;;;;2.63;1.15;;;25.60;53.10;;;;;;5010378;28;20076;-64
2022/06/08 09:16:39;;;;;;;1.45;0.90;;;25.40;54.10;;;;;;5017410;28;20939;-64
2022/06/08 09:19:26;;;;;;;1.10;0.98;;;25.60;54.00;;;;;;5011933;28;20041;-64
2022/06/08 09:22:15;;;;;;;1.80;1.33;;;25.80;54.10;;;;;;5009284;28;20080;-64
2022/06/08 09:24:58;;;;;;;1.50;1.13;;;25.90;54.40;;;;;;5010782;28;20032;-64
2022/06/08 09:27:26;;;;;;;2.88;1.45;;;25.90;54.50;;;;;;5008167;28;20021;-64
2022/06/08 09:30:16;;;;;;;1.73;1.10;;;25.80;54.80;;;;;;5015393;28;20057;-64
2022/06/08 09:32:49;;;;;;;1.15;1.05;;;25.70;55.40;;;;;;5006568;28;20029;-64
2022/06/08 09:35:23;;;;;;;1.80;1.30;;;25.70;54.90;;;;;;5011639;28;20706;-64
2022/06/08 09:37:52;;;;;;;2.83;1.95;;;25.90;54.60;;;;;;5012761;28;20040;-64
2022/06/08 09:40:38;;;;;;;1.48;1.20;;;26.10;52.40;;;;;;5011838;28;20834;-64
2022/06/08 09:43:17;;;;;;;1.52;1.10;;;26.20;52.50;;;;;;5010787;28;20037;-64
2022/06/08 09:46:10;;;;;;;3.60;2.72;;;26.50;52.70;;;;;;5007876;28;20124;-64
2022/06/08 09:51:47;;;;;;;2.03;1.58;;;27.00;51.60;;;;;;5011230;28;20061;-64
2022/06/08 09:54:48;;;;;;;2.00;0.80;;;27.20;51.20;;;;;;5009740;28;20048;-64
2022/06/08 09:57:14;;;;;;;3.60;2.20;;;27.00;50.30;;;;;;5011749;28;20080;-64
2022/06/08 10:00:02;;;;;;;5.55;1.27;;;26.60;51.10;;;;;;5004357;28;20129;-64
2022/06/08 10:02:40;;;;;;;1.75;1.05;;;26.40;51.60;;;;;;5005374;28;20493;-64
2022/06/08 10:05:24;;;;;;;1.23;0.90;;;26.20;52.60;;;;;;5011786;28;20181;-64
2022/06/08 10:08:17;;;;;;;0.60;0.60;;;26.00;53.10;;;;;;5013217;28;20029;-64
2022/06/08 10:11:03;;;;;;;1.55;1.35;;;25.70;52.40;;;;;;5013460;28;20034;-63
2022/06/08 10:13:43;;;;;;;5.03;2.05;;;25.90;52.80;;;;;;5009424;28;20037;-63
2022/06/08 10:16:22;;;;;;;4.25;2.25;;;26.20;52.60;;;;;;5009342;28;20068;-63
2022/06/08 10:18:56;;;;;;;0.93;0.90;;;26.40;52.10;;;;;;5015394;28;20083;-64
2022/06/08 10:21:31;;;;;;;1.90;1.20;;;26.40;51.40;;;;;;5012739;28;20720;-64
2022/06/08 10:24:03;;;;;;;2.50;0.60;;;26.60;51.40;;;;;;5011605;28;20026;-64
2022/06/08 10:26:43;;;;;;;1.05;0.98;;;27.00;49.70;;;;;;5013027;28;20144;-63
2022/06/08 10:29:43;;;;;;;0.60;0.60;;;27.20;49.00;;;;;;5016406;28;20056;-64
2022/06/08 10:32:19;;;;;;;2.22;1.33;;;27.10;48.50;;;;;;5005775;28;20507;-64
2022/06/08 10:34:52;;;;;;;4.55;2.72;;;27.20;48.80;;;;;;5009227;28;20026;-64
2022/06/08 10:37:33;;;;;;;1.90;1.15;;;27.40;48.30;;;;;;5014755;28;20648;-64
2022/06/08 10:40:00;;;;;;;1.02;0.90;;;27.50;48.60;;;;;;5011973;28;20378;-64
2022/06/08 10:42:40;;;;;;;1.15;1.05;;;27.60;49.20;;;;;;5013006;28;20037;-64
2022/06/08 10:45:33;;;;;;;1.08;0.90;;;27.70;47.90;;;;;;5012113;28;20072;-64
2022/06/08 10:48:11;;;;;;;2.13;1.00;;;27.80;47.70;;;;;;5013591;28;20132;-64
2022/06/08 10:50:40;;;;;;;1.65;1.25;;;28.00;48.00;;;;;;5008696;28;20029;-64
2022/06/08 10:56:23;;;;;;;0.77;0.63;;;27.60;47.30;;;;;;5014831;28;20061;-64
2022/06/08 10:58:57;;;;;;;1.10;0.90;;;27.30;48.20;;;;;;5013444;28;20038;-64
2022/06/08 11:01:42;;;;;;;2.55;2.10;;;27.40;47.80;;;;;;5016631;28;20041;-64
2022/06/08 11:04:35;;;;;;;1.30;0.90;;;27.70;47.80;;;;;;5014729;28;20030;-64
2022/06/08 11:07:10;;;;;;;2.67;0.70;;;27.90;48.30;;;;;;5018761;28;20041;-64
2022/06/08 11:09:43;;;;;;;2.08;0.60;;;28.00;48.00;;;;;;5031027;28;20038;-64
2022/06/08 11:12:13;;;;;;;1.52;0.60;;;27.90;47.40;;;;;;5011128;28;20058;-64
2022/06/08 11:14:47;;;;;;;0.98;0.75;;;27.60;47.20;;;;;;5012555;28;20087;-64
2022/06/08 11:17:36;;;;;;;4.78;0.98;;;27.60;49.10;;;;;;5014355;28;20614;-65
2022/06/08 11:20:21;;;;;;;0.60;0.52;;;27.90;48.40;;;;;;5015521;28;20037;-64
2022/06/08 11:23:01;;;;;;;1.20;0.70;;;28.00;46.40;;;;;;5012921;28;20433;-64
2022/06/08 11:25:32;;;;;;;4.57;0.60;;;28.20;46.80;;;;;;5012020;28;20045;-65
2022/06/08 11:28:26;;;;;;;1.92;0.40;;;28.30;45.70;;;;;;5009630;28;20029;-64
2022/06/08 11:30:55;;;;;;;2.15;0.80;;;28.00;46.20;;;;;;5012897;28;20084;-64
2022/06/08 11:33:21;;;;;;;1.05;0.63;;;27.70;47.00;;;;;;5013633;28;20114;-64
2022/06/08 11:36:10;;;;;;;2.40;0.90;;;27.50;46.60;;;;;;5015066;28;20038;-64
2022/06/08 11:38:54;;;;;;;0.50;0.40;;;27.50;46.30;;;;;;5004580;28;20156;-64
2022/06/08 11:41:20;;;;;;;0.40;0.40;;;27.40;46.90;;;;;;5013621;28;20029;-64
2022/06/08 11:43:47;;;;;;;4.43;0.70;;;27.40;46.40;;;;;;5010329;28;20486;-64
2022/06/08 11:46:41;;;;;;;0.60;0.60;;;27.30;46.50;;;;;;5014896;28;20125;-64
2022/06/08 11:49:38;;;;;;;1.33;0.60;;;27.10;47.90;;;;;;5015097;28;20034;-64
2022/06/08 11:52:28;;;;;;;1.70;0.98;;;27.30;47.90;;;;;;5016570;28;20045;-64
2022/06/08 11:55:12;;;;;;;2.58;1.65;;;27.30;47.20;;;;;;5011245;28;20049;-64
2022/06/08 11:57:46;;;;;;;1.17;0.43;;;27.40;46.90;;;;;;5015801;28;20088;-64
2022/06/08 12:00:21;;;;;;;0.22;0.22;;;27.40;46.70;;;;;;5009694;28;20060;-64
2022/06/08 12:02:53;;;;;;;1.63;0.50;;;27.30;46.60;;;;;;5011628;28;20040;-65
2022/06/08 12:05:28;;;;;;;0.40;0.30;;;27.40;47.60;;;;;;5012964;28;20053;-64
2022/06/08 12:08:09;;;;;;;1.40;1.20;;;27.40;46.70;;;;;;5013506;28;20029;-65
2022/06/08 12:10:36;;;;;;;0.70;0.70;;;27.50;47.00;;;;;;5012432;28;20038;-65
2022/06/08 12:13:04;;;;;;;1.67;0.52;;;27.60;46.80;;;;;;5012410;28;20034;-65
2022/06/08 12:15:43;;;;;;;0.73;0.65;;;27.50;46.50;;;;;;5012650;28;20038;-65
2022/06/08 12:18:21;;;;;;;0.90;0.45;;;27.10;46.70;;;;;;5009655;28;20086;-65
2022/06/08 12:20:48;;;;;;;0.80;0.50;;;27.10;46.00;;;;;;5014856;28;20454;-64
2022/06/08 12:23:14;;;;;;;0.45;0.40;;;27.00;46.40;;;;;;5016508;28;20030;-65
2022/06/08 12:25:40;;;;;;;1.23;0.50;;;27.00;46.50;;;;;;5014905;28;20038;-65
2022/06/08 12:28:06;;;;;;;2.83;0.40;;;27.20;46.30;;;;;;5014038;28;20684;-65
2022/06/08 12:30:32;;;;;;;0.63;0.40;;;27.30;45.80;;;;;;5015783;28;20034;-64
2022/06/08 12:33:04;;;;;;;0.35;0.35;;;27.30;45.70;;;;;;5007288;28;20584;-64
2022/06/08 12:35:38;;;;;;;0.52;0.52;;;27.60;46.00;;;;;;5014764;28;20060;-64
2022/06/08 12:38:25;;;;;;;0.52;0.40;;;27.70;45.70;;;;;;5014914;28;20691;-65
2022/06/08 12:41:10;;;;;;;0.30;0.30;;;27.80;45.70;;;;;;5007361;28;20036;-65
2022/06/08 12:43:41;;;;;;;;;;;27.80;44.80;;;;;;5007467;28;20029;-65
2022/06/08 12:46:10;;;;;;;1.45;0.50;;;27.80;45.10;;;;;;5014227;28;20413;-65
2022/06/08 12:48:36;;;;;;;0.47;0.45;;;27.80;45.10;;;;;;5013790;28;20041;-65
2022/06/08 12:51:36;;;;;;;0.80;0.80;;;27.70;45.60;;;;;;5014820;28;20508;-65
2022/06/08 12:54:14;;;;;;;0.60;0.40;;;27.60;44.90;;;;;;5012887;28;20049;-65
2022/06/08 12:56:40;;;;;;;0.55;0.25;;;27.60;44.90;;;;;;5009099;28;20034;-65
2022/06/08 12:59:06;;;;;;;3.47;0.60;;;27.40;43.90;;;;;;5009189;28;20037;-64
2022/06/08 13:01:32;;;;;;;1.33;0.40;;;27.30;45.20;;;;;;5014038;28;20067;-65
2022/06/08 13:03:58;;;;;;;2.17;0.30;;;27.20;45.20;;;;;;5008389;28;20705;-65
2022/06/08 13:06:24;;;;;;;0.40;0.40;;;27.20;45.60;;;;;;5016239;28;20024;-65
2022/06/08 13:08:51;;;;;;;0.73;0.50;;;27.10;45.10;;;;;;5014158;28;20722;-65
2022/06/08 13:11:20;;;;;;;0.55;0.30;;;27.10;46.00;;;;;;5014330;28;20085;-65
2022/06/08 13:13:47;;;;;;;0.40;0.40;;;27.20;46.50;;;;;;5009269;28;20033;-65
2022/06/08 13:16:21;;;;;;;1.23;0.50;;;27.40;45.20;;;;;;5009931;28;20033;-65
2022/06/08 13:18:47;;;;;;;2.45;0.25;;;27.40;45.60;;;;;;5012550;28;20061;-64
2022/06/08 13:21:14;;;;;;;0.63;0.35;;;27.40;45.90;;;;;;5013617;28;20793;-64
2022/06/08 13:23:40;;;;;;;0.80;0.25;;;27.30;44.40;;;;;;5015787;28;20056;-64
2022/06/08 13:26:19;;;;;;;2.38;1.65;;;27.20;44.60;;;;;;5016535;28;20172;-64
2022/06/08 13:28:48;;;;;;;2.67;1.80;;;27.10;45.60;;;;;;5013389;28;20021;-64
2022/06/08 13:31:13;;;;;;;9.27;1.67;;;26.90;45.00;;;;;;5007157;28;20139;-64